createdAt,value
2017-12-25T00:00:33.398Z,11.38
2017-12-25T00:01:07.074Z,10.73
2017-12-25T00:01:40.746Z,11.07
2017-12-25T00:02:15.193Z,11.75
2017-12-25T00:02:48.857Z,10.30
2017-12-25T00:03:22.540Z,9.43
2017-12-25T00:03:57.010Z,10.32
2017-12-25T00:04:30.676Z,11.27
2017-12-25T00:05:04.352Z,10.60
2017-12-25T00:05:38.022Z,10.15
2017-12-25T00:06:11.704Z,11.38
2017-12-25T00:06:46.140Z,10.32
2017-12-25T00:07:19.809Z,10.55
2017-12-25T00:07:53.477Z,10.73
2017-12-25T00:08:28.192Z,10.50
2017-12-25T00:09:02.629Z,10.73
2017-12-25T00:09:36.308Z,10.52
2017-12-25T00:10:10.726Z,9.80
2017-12-25T00:10:44.404Z,10.80
2017-12-25T00:11:18.075Z,10.40
2017-12-25T00:11:52.525Z,10.77
2017-12-25T00:12:26.194Z,9.93
2017-12-25T00:12:59.987Z,10.02
2017-12-25T00:13:33.967Z,9.88
2017-12-25T00:14:08.405Z,10.68
2017-12-25T00:14:42.076Z,11.05
2017-12-25T00:15:15.753Z,10.23
2017-12-25T00:15:50.377Z,9.90
2017-12-25T00:16:24.038Z,9.70
2017-12-25T00:16:57.698Z,9.43
2017-12-25T00:17:31.358Z,9.50
2017-12-25T00:18:05.030Z,10.27
2017-12-25T00:18:39.606Z,9.20
2017-12-25T00:19:13.263Z,9.00
2017-12-25T00:19:46.937Z,9.90
2017-12-25T00:20:20.607Z,9.27
2017-12-25T00:20:55.040Z,9.40
2017-12-25T00:21:28.704Z,9.15
2017-12-25T00:22:03.147Z,9.38
2017-12-25T00:22:36.811Z,8.95
2017-12-25T00:23:10.482Z,9.32
2017-12-25T00:23:45.211Z,9.70
2017-12-25T00:24:18.891Z,9.10
2017-12-25T00:24:53.321Z,9.65
2017-12-25T00:25:26.992Z,9.45
2017-12-25T00:26:01.417Z,9.68
2017-12-25T00:26:35.083Z,9.40
2017-12-25T00:27:09.522Z,9.05
2017-12-25T00:27:43.189Z,10.23
2017-12-25T00:28:16.849Z,10.20
2017-12-25T00:28:50.524Z,9.40
2017-12-25T00:29:24.197Z,10.45
2017-12-25T00:29:57.877Z,10.50
2017-12-25T00:30:31.545Z,9.63
2017-12-25T00:31:05.210Z,9.82
2017-12-25T00:31:39.647Z,10.15
2017-12-25T00:32:16.291Z,9.07
2017-12-25T00:32:50.132Z,10.05
2017-12-25T00:33:23.813Z,9.60
2017-12-25T00:33:57.860Z,10.73
2017-12-25T00:34:32.315Z,10.43
2017-12-25T00:35:06.015Z,10.50
2017-12-25T00:35:39.700Z,10.35
2017-12-25T00:36:13.369Z,9.88
2017-12-25T00:36:47.047Z,10.38
2017-12-25T00:37:20.755Z,9.85
2017-12-25T00:37:54.420Z,9.65
2017-12-25T00:38:28.096Z,9.27
2017-12-25T00:39:02.555Z,9.15
2017-12-25T00:39:36.247Z,9.70
2017-12-25T00:40:09.922Z,9.95
2017-12-25T00:40:43.584Z,8.85
2017-12-25T00:41:17.271Z,10.60
2017-12-25T00:41:51.721Z,9.88
2017-12-25T00:42:25.062Z,9.32
2017-12-25T00:42:58.752Z,10.30
2017-12-25T00:43:32.454Z,10.45
2017-12-25T00:44:06.157Z,9.70
2017-12-25T00:44:39.860Z,10.30
2017-12-25T00:45:13.537Z,11.00
2017-12-25T00:45:48.154Z,9.77
2017-12-25T00:46:21.825Z,10.32
2017-12-25T00:46:55.502Z,10.70
2017-12-25T00:47:29.185Z,11.10
2017-12-25T00:48:03.658Z,11.95
2017-12-25T00:48:37.340Z,11.45
2017-12-25T00:49:11.050Z,11.05
2017-12-25T00:49:44.719Z,11.10
2017-12-25T00:50:18.412Z,12.88
2017-12-25T00:50:52.090Z,12.60
2017-12-25T00:51:25.766Z,11.75
2017-12-25T00:51:59.512Z,12.27
2017-12-25T00:52:33.955Z,12.63
2017-12-25T00:53:07.639Z,12.85
2017-12-25T00:53:41.322Z,11.88
2017-12-25T00:54:15.076Z,13.18
2017-12-25T00:54:48.890Z,13.05
2017-12-25T00:55:23.348Z,13.10
2017-12-25T00:55:57.035Z,13.15
2017-12-25T00:56:30.718Z,13.18
2017-12-25T00:57:04.402Z,12.82
2017-12-25T00:57:38.084Z,13.02
2017-12-25T00:58:11.746Z,13.30
2017-12-25T00:58:45.428Z,13.50
2017-12-25T00:59:19.140Z,16.42
2017-12-25T00:59:53.625Z,15.32
2017-12-25T01:00:27.518Z,14.65
2017-12-25T01:01:01.970Z,14.48
2017-12-25T01:01:36.457Z,14.25
2017-12-25T01:02:10.924Z,16.08
2017-12-25T01:02:44.609Z,14.98
2017-12-25T01:03:18.303Z,15.50
2017-12-25T01:03:51.975Z,16.00
2017-12-25T01:04:25.694Z,14.68
2017-12-25T01:04:59.658Z,16.00
2017-12-25T01:05:33.325Z,15.25
2017-12-25T01:06:06.996Z,15.40
2017-12-25T01:06:41.478Z,15.30
2017-12-25T01:07:15.155Z,15.85
2017-12-25T01:07:48.821Z,14.65
2017-12-25T01:08:22.595Z,16.60
2017-12-25T01:08:56.287Z,15.68
2017-12-25T01:09:30.226Z,15.00
2017-12-25T01:10:03.562Z,16.12
2017-12-25T01:10:37.236Z,15.25
2017-12-25T01:11:11.675Z,14.48
2017-12-25T01:11:45.333Z,15.35
2017-12-25T01:12:19.768Z,15.65
2017-12-25T01:12:53.443Z,16.42
2017-12-25T01:13:27.120Z,15.30
2017-12-25T01:14:01.563Z,15.13
2017-12-25T01:14:35.263Z,15.48
2017-12-25T01:15:08.919Z,14.75
2017-12-25T01:15:42.614Z,15.32
2017-12-25T01:16:16.289Z,15.32
2017-12-25T01:16:50.733Z,16.23
2017-12-25T01:17:24.424Z,15.82
2017-12-25T01:17:58.113Z,15.40
2017-12-25T01:18:31.836Z,15.88
2017-12-25T01:19:05.528Z,17.37
2017-12-25T01:19:39.228Z,16.60
2017-12-25T01:20:12.891Z,15.32
2017-12-25T01:20:46.562Z,16.85
2017-12-25T01:21:20.255Z,16.23
2017-12-25T01:21:54.009Z,15.88
2017-12-25T01:22:28.673Z,16.85
2017-12-25T01:23:02.338Z,16.90
2017-12-25T01:23:36.047Z,17.75
2017-12-25T01:24:09.748Z,16.75
2017-12-25T01:24:43.466Z,17.80
2017-12-25T01:25:17.906Z,17.52
2017-12-25T01:25:51.603Z,17.75
2017-12-25T01:26:25.302Z,18.05
2017-12-25T01:26:59.033Z,18.33
2017-12-25T01:27:33.490Z,19.23
2017-12-25T01:28:07.145Z,18.48
2017-12-25T01:28:41.629Z,18.87
2017-12-25T01:29:15.304Z,18.98
2017-12-25T01:29:49.007Z,18.08
2017-12-25T01:30:22.729Z,18.90
2017-12-25T01:30:57.206Z,18.75
2017-12-25T01:31:30.899Z,19.08
2017-12-25T01:32:04.588Z,18.15
2017-12-25T01:32:38.254Z,18.80
2017-12-25T01:33:11.943Z,19.37
2017-12-25T01:33:45.621Z,17.73
2017-12-25T01:34:19.283Z,19.10
2017-12-25T01:34:53.008Z,18.42
2017-12-25T01:35:26.725Z,19.50
2017-12-25T01:36:00.407Z,19.30
2017-12-25T01:36:34.088Z,20.10
2017-12-25T01:37:07.778Z,19.60
2017-12-25T01:37:41.460Z,19.70
2017-12-25T01:38:15.130Z,17.83
2017-12-25T01:38:48.831Z,20.70
2017-12-25T01:39:22.519Z,18.27
2017-12-25T01:39:56.264Z,19.02
2017-12-25T01:40:30.703Z,19.15
2017-12-25T01:41:04.470Z,19.65
2017-12-25T01:41:38.957Z,19.08
2017-12-25T01:42:12.752Z,19.17
2017-12-25T01:42:47.254Z,18.00
2017-12-25T01:43:21.010Z,19.35
2017-12-25T01:43:54.731Z,18.02
2017-12-25T01:44:28.454Z,19.02
2017-12-25T01:45:03.885Z,18.77
2017-12-25T01:45:38.317Z,18.83
2017-12-25T01:46:11.987Z,19.42
2017-12-25T01:46:57.565Z,18.58
2017-12-25T01:47:31.270Z,18.50
2017-12-25T01:48:04.973Z,18.62
2017-12-25T01:48:38.658Z,18.10
2017-12-25T01:49:12.343Z,17.60
2017-12-25T01:49:46.009Z,18.40
2017-12-25T01:50:20.467Z,17.98
2017-12-25T01:50:53.467Z,17.40
2017-12-25T01:51:26.474Z,18.83
2017-12-25T01:51:59.486Z,17.45
2017-12-25T01:52:32.490Z,15.85
2017-12-25T01:53:09.243Z,17.58
2017-12-25T01:53:44.168Z,17.35
2017-12-25T01:54:17.174Z,16.83
2017-12-25T01:54:50.196Z,16.95
2017-12-25T01:55:23.939Z,16.52
2017-12-25T01:55:56.954Z,17.58
2017-12-25T01:56:40.727Z,16.73
2017-12-25T01:58:32.573Z,16.25
2017-12-25T02:00:03.761Z,16.35
2017-12-25T02:02:02.524Z,15.32
2017-12-25T02:02:35.891Z,14.35
2017-12-25T02:03:08.894Z,15.73
2017-12-25T02:03:41.915Z,15.43
2017-12-25T02:04:28.685Z,14.10
2017-12-25T02:05:19.295Z,13.25
2017-12-25T02:05:56.051Z,13.27
2017-12-25T02:06:41.109Z,13.07
2017-12-25T02:07:25.922Z,13.73
2017-12-25T02:08:11.429Z,13.20
2017-12-25T02:08:45.126Z,14.15
2017-12-25T02:09:18.813Z,13.48
2017-12-25T02:09:52.483Z,13.93
2017-12-25T02:10:27.204Z,14.43
2017-12-25T02:11:00.884Z,13.23
2017-12-25T02:11:35.327Z,12.80
2017-12-25T02:12:08.999Z,12.10
2017-12-25T02:12:42.683Z,13.50
2017-12-25T02:13:16.365Z,12.35
2017-12-25T02:13:50.803Z,12.75
2017-12-25T02:14:24.475Z,12.88
2017-12-25T02:14:58.156Z,13.15
2017-12-25T02:15:32.628Z,11.35
2017-12-25T02:16:06.315Z,12.48
2017-12-25T02:16:39.999Z,11.48
2017-12-25T02:17:13.686Z,11.45
2017-12-25T02:17:47.379Z,11.80
2017-12-25T02:18:21.261Z,11.38
2017-12-25T02:18:54.954Z,11.90
2017-12-25T02:19:28.637Z,11.57
2017-12-25T02:20:02.319Z,12.00
2017-12-25T02:20:36.286Z,11.65
2017-12-25T02:21:14.110Z,11.40
2017-12-25T02:21:47.811Z,11.80
2017-12-25T02:22:21.494Z,11.77
2017-12-25T02:22:55.221Z,12.32
2017-12-25T02:23:29.677Z,13.57
2017-12-25T02:24:03.354Z,11.55
2017-12-25T02:24:37.073Z,12.10
2017-12-25T02:25:10.749Z,12.98
2017-12-25T02:25:44.745Z,12.10
2017-12-25T02:26:18.449Z,12.50
2017-12-25T02:26:52.137Z,12.07
2017-12-25T02:27:25.877Z,12.25
2017-12-25T02:27:59.635Z,12.35
2017-12-25T02:28:33.320Z,12.52
2017-12-25T02:29:07.014Z,13.07
2017-12-25T02:29:40.889Z,12.07
2017-12-25T02:30:14.566Z,12.35
2017-12-25T02:30:48.526Z,13.00
2017-12-25T02:31:23.017Z,11.95
2017-12-25T02:31:56.752Z,12.75
2017-12-25T02:32:30.483Z,12.32
2017-12-25T02:33:04.175Z,11.82
2017-12-25T02:33:37.865Z,11.60
2017-12-25T02:34:11.560Z,13.27
2017-12-25T02:34:45.243Z,13.15
2017-12-25T02:35:18.919Z,12.10
2017-12-25T02:35:52.656Z,12.85
2017-12-25T02:36:27.099Z,12.37
2017-12-25T02:37:00.823Z,12.15
2017-12-25T02:37:34.172Z,12.98
2017-12-25T02:38:07.843Z,12.37
2017-12-25T02:38:41.593Z,13.10
2017-12-25T02:39:15.338Z,11.70
2017-12-25T02:39:49.011Z,11.40
2017-12-25T02:40:23.494Z,12.00
2017-12-25T02:40:57.214Z,12.02
2017-12-25T02:41:30.886Z,12.05
2017-12-25T02:42:05.316Z,11.32
2017-12-25T02:42:39.052Z,11.63
2017-12-25T02:43:12.730Z,10.80
2017-12-25T02:43:46.423Z,10.90
2017-12-25T02:44:20.155Z,10.48
2017-12-25T02:44:54.603Z,11.25
2017-12-25T02:45:28.329Z,10.77
2017-12-25T02:46:03.228Z,11.07
2017-12-25T02:46:36.963Z,9.80
2017-12-25T02:47:11.468Z,10.18
2017-12-25T02:47:45.955Z,9.30
2017-12-25T02:48:19.626Z,9.68
2017-12-25T02:48:53.319Z,10.15
2017-12-25T02:49:27.004Z,8.90
2017-12-25T02:50:00.727Z,9.57
2017-12-25T02:50:34.430Z,9.57
2017-12-25T02:51:09.308Z,9.25
2017-12-25T02:51:42.982Z,8.43
2017-12-25T02:52:16.688Z,8.88
2017-12-25T02:52:50.418Z,9.20
2017-12-25T02:53:24.871Z,8.85
2017-12-25T02:53:58.588Z,8.73
2017-12-25T02:54:32.311Z,8.75
2017-12-25T02:55:06.746Z,8.45
2017-12-25T02:55:40.424Z,9.55
2017-12-25T02:56:14.883Z,8.52
2017-12-25T02:56:48.568Z,8.52
2017-12-25T02:57:22.255Z,8.25
2017-12-25T02:57:55.921Z,8.15
2017-12-25T02:58:29.603Z,8.63
2017-12-25T02:59:03.313Z,8.82
2017-12-25T02:59:37.003Z,8.00
2017-12-25T03:00:10.707Z,7.78
2017-12-25T03:00:44.424Z,7.30
2017-12-25T03:01:18.432Z,7.68
2017-12-25T03:01:52.874Z,7.53
2017-12-25T03:02:26.532Z,7.68
2017-12-25T03:03:00.980Z,8.10
2017-12-25T03:03:34.694Z,7.57
2017-12-25T03:04:08.366Z,7.65
2017-12-25T03:04:42.028Z,7.97
2017-12-25T03:05:16.501Z,7.68
2017-12-25T03:05:50.196Z,7.10
2017-12-25T03:06:26.911Z,7.57
2017-12-25T03:07:01.489Z,7.25
2017-12-25T03:07:35.893Z,7.35
2017-12-25T03:08:10.304Z,6.85
2017-12-25T03:08:44.726Z,7.45
2017-12-25T03:09:18.366Z,7.47
2017-12-25T03:09:52.211Z,7.85
2017-12-25T03:10:25.870Z,7.03
2017-12-25T03:11:00.283Z,7.32
2017-12-25T03:11:34.742Z,7.45
2017-12-25T03:12:08.418Z,6.75
2017-12-25T03:12:42.094Z,6.80
2017-12-25T03:13:15.763Z,6.75
2017-12-25T03:13:50.271Z,7.03
2017-12-25T03:14:23.956Z,5.82
2017-12-25T03:14:58.382Z,6.50
2017-12-25T03:15:32.042Z,6.45
2017-12-25T03:16:05.706Z,6.35
2017-12-25T03:16:39.629Z,6.18
2017-12-25T03:17:13.460Z,7.25
2017-12-25T03:17:47.125Z,6.57
2017-12-25T03:18:21.555Z,6.55
2017-12-25T03:18:55.221Z,6.65
2017-12-25T03:19:29.659Z,6.80
2017-12-25T03:20:03.453Z,6.65
2017-12-25T03:20:37.102Z,6.65
2017-12-25T03:21:11.522Z,6.10
2017-12-25T03:21:46.128Z,5.47
2017-12-25T03:22:20.538Z,6.65
2017-12-25T03:22:54.951Z,5.82
2017-12-25T03:23:28.668Z,5.70
2017-12-25T03:24:02.362Z,6.10
2017-12-25T03:24:36.035Z,6.20
2017-12-25T03:25:11.156Z,6.93
2017-12-25T03:25:44.818Z,6.20
2017-12-25T03:26:19.249Z,5.62
2017-12-25T03:26:53.218Z,5.75
2017-12-25T03:27:26.910Z,6.10
2017-12-25T03:28:01.343Z,6.68
2017-12-25T03:28:35.020Z,6.53
2017-12-25T03:29:09.448Z,6.43
2017-12-25T03:29:43.105Z,6.05
2017-12-25T03:30:56.841Z,5.62
2017-12-25T03:31:31.287Z,6.25
2017-12-25T03:32:05.427Z,6.43
2017-12-25T03:32:39.088Z,5.57
2017-12-25T03:33:12.731Z,5.80
2017-12-25T03:33:47.736Z,6.10
2017-12-25T03:34:22.182Z,5.18
2017-12-25T03:34:55.852Z,6.40
2017-12-25T03:35:30.269Z,5.18
2017-12-25T03:36:04.506Z,5.70
2017-12-25T03:36:38.167Z,5.43
2017-12-25T03:37:12.128Z,5.25
2017-12-25T03:37:46.551Z,4.80
2017-12-25T03:38:20.211Z,5.10
2017-12-25T03:38:54.161Z,5.15
2017-12-25T03:39:27.822Z,5.22
2017-12-25T03:40:02.264Z,5.00
2017-12-25T03:40:35.919Z,4.45
2017-12-25T03:41:10.436Z,4.90
2017-12-25T03:41:44.219Z,4.70
2017-12-25T03:42:18.654Z,4.65
2017-12-25T03:42:52.299Z,4.97
2017-12-25T03:43:26.711Z,4.75
2017-12-25T03:44:01.146Z,4.60
2017-12-25T03:44:34.808Z,4.55
2017-12-25T03:45:09.226Z,4.93
2017-12-25T03:45:43.838Z,4.32
2017-12-25T03:46:18.251Z,4.50
2017-12-25T03:46:51.916Z,4.97
2017-12-25T03:47:26.642Z,4.72
2017-12-25T03:48:01.071Z,3.92
2017-12-25T03:48:34.720Z,4.87
2017-12-25T03:49:08.374Z,3.90
2017-12-25T03:49:42.038Z,3.83
2017-12-25T03:50:15.693Z,4.05
2017-12-25T03:50:49.350Z,4.00
2017-12-25T03:51:23.006Z,4.18
2017-12-25T03:51:56.654Z,3.70
2017-12-25T03:52:30.657Z,4.15
2017-12-25T03:53:04.305Z,3.25
2017-12-25T03:53:37.963Z,4.25
2017-12-25T03:54:11.613Z,3.62
2017-12-25T03:54:45.272Z,4.15
2017-12-25T03:55:18.926Z,3.90
2017-12-25T03:55:52.592Z,3.65
2017-12-25T03:56:26.254Z,3.20
2017-12-25T05:17:03.950Z,5.47
2017-12-25T05:17:37.604Z,6.50
2017-12-25T05:18:11.252Z,6.05
2017-12-25T05:18:44.914Z,7.45
2017-12-25T05:19:18.570Z,6.80
2017-12-25T05:19:52.994Z,7.05
2017-12-25T05:20:26.638Z,8.10
2017-12-25T05:21:00.307Z,7.35
2017-12-25T05:21:33.961Z,7.15
2017-12-25T05:22:07.605Z,7.93
2017-12-25T05:22:41.254Z,7.20
2017-12-25T05:23:14.917Z,6.90
2017-12-25T05:23:49.340Z,6.72
2017-12-25T05:24:22.995Z,6.93
2017-12-25T05:24:57.212Z,6.45
2017-12-25T05:25:31.641Z,6.72
2017-12-25T05:26:05.606Z,6.72
2017-12-25T05:26:40.022Z,7.30
2017-12-25T05:27:14.430Z,6.90
2017-12-25T05:27:48.841Z,5.90
2017-12-25T05:28:23.254Z,6.45
2017-12-25T05:28:57.686Z,6.53
2017-12-25T05:29:31.330Z,7.22
2017-12-25T05:30:04.649Z,6.80
2017-12-25T05:30:38.305Z,6.43
2017-12-25T05:31:12.749Z,7.20
2017-12-25T05:31:46.413Z,6.62
2017-12-25T05:32:20.086Z,6.55
2017-12-25T05:32:53.741Z,7.30
2017-12-25T05:33:27.393Z,6.50
2017-12-25T05:34:01.055Z,7.10
2017-12-25T05:34:34.713Z,6.97
2017-12-25T05:35:08.382Z,7.40
2017-12-25T05:35:42.030Z,6.62
2017-12-25T05:36:16.841Z,6.37
2017-12-25T05:36:51.259Z,6.90
2017-12-25T05:37:25.694Z,6.70
2017-12-25T05:37:59.357Z,6.60
2017-12-25T05:38:33.779Z,6.15
2017-12-25T05:39:07.418Z,6.15
2017-12-25T05:39:41.066Z,6.87
2017-12-25T05:40:14.710Z,6.18
2017-12-25T05:40:48.362Z,7.05
2017-12-25T05:41:22.405Z,6.60
2017-12-25T05:41:56.815Z,6.35
2017-12-25T05:42:31.229Z,5.97
2017-12-25T05:43:05.647Z,6.90
2017-12-25T05:43:39.293Z,6.32
2017-12-25T05:44:12.946Z,5.95
2017-12-25T05:44:46.587Z,6.45
2017-12-25T05:45:21.003Z,6.37
2017-12-25T05:45:54.654Z,6.20
2017-12-25T05:46:28.685Z,6.10
2017-12-25T05:47:03.108Z,5.32
2017-12-25T05:47:36.760Z,6.10
2017-12-25T05:48:10.418Z,5.55
2017-12-25T05:48:44.078Z,5.80
2017-12-25T05:49:18.502Z,5.93
2017-12-25T05:49:52.145Z,5.90
2017-12-25T05:50:25.791Z,6.32
2017-12-25T05:50:59.457Z,6.80
2017-12-25T05:51:33.420Z,6.10
2017-12-25T05:52:07.841Z,5.85
2017-12-25T05:52:41.486Z,5.87
2017-12-25T05:53:15.126Z,5.85
2017-12-25T05:53:49.546Z,6.25
2017-12-25T05:54:23.183Z,6.43
2017-12-25T05:54:57.394Z,5.47
2017-12-25T05:55:31.048Z,6.30
2017-12-25T05:56:04.687Z,5.70
2017-12-25T05:56:39.401Z,5.62
2017-12-25T05:57:13.044Z,5.95
2017-12-25T05:57:46.686Z,5.80
2017-12-25T05:58:21.112Z,5.85
2017-12-25T05:58:54.761Z,6.00
2017-12-25T05:59:28.434Z,5.22
2017-12-25T06:00:02.083Z,5.53
2017-12-25T06:00:35.739Z,6.12
2017-12-25T06:01:09.391Z,5.53
2017-12-25T06:01:43.281Z,6.15
2017-12-25T06:02:16.937Z,5.22
2017-12-25T06:02:51.342Z,5.68
2017-12-25T06:03:25.754Z,6.10
2017-12-25T06:03:59.405Z,5.90
2017-12-25T06:04:33.051Z,5.47
2017-12-25T06:05:06.718Z,4.85
2017-12-25T06:05:41.134Z,6.30
2017-12-25T06:06:14.788Z,5.28
2017-12-25T06:06:48.454Z,5.53
2017-12-25T06:07:22.117Z,5.37
2017-12-25T06:07:55.778Z,5.60
2017-12-25T06:08:30.185Z,5.90
2017-12-25T06:09:03.963Z,6.72
2017-12-25T06:09:38.386Z,4.55
2017-12-25T06:10:12.059Z,5.50
2017-12-25T06:10:45.715Z,5.25
2017-12-25T06:11:19.368Z,5.82
2017-12-25T06:11:53.060Z,5.55
2017-12-25T06:12:26.714Z,4.78
2017-12-25T06:13:01.138Z,5.20
2017-12-25T06:13:34.805Z,5.80
2017-12-25T06:14:09.222Z,5.35
2017-12-25T06:14:43.642Z,5.05
2017-12-25T06:15:17.327Z,5.57
2017-12-25T06:15:51.158Z,5.10
2017-12-25T06:16:24.813Z,5.85
2017-12-25T06:16:58.508Z,5.60
2017-12-25T06:17:32.158Z,4.80
2017-12-25T06:18:05.809Z,5.35
2017-12-25T06:18:39.462Z,4.90
2017-12-25T06:19:13.882Z,4.97
2017-12-25T06:19:47.534Z,4.68
2017-12-25T06:20:21.198Z,4.95
2017-12-25T06:20:54.862Z,5.00
2017-12-25T06:21:28.514Z,5.37
2017-12-25T06:22:02.959Z,5.32
2017-12-25T06:22:36.618Z,4.80
2017-12-25T06:23:11.034Z,5.10
2017-12-25T06:23:45.462Z,5.12
2017-12-25T06:24:19.106Z,5.40
2017-12-25T06:24:53.530Z,4.87
2017-12-25T06:25:27.942Z,4.97
2017-12-25T06:26:02.363Z,5.18
2017-12-25T06:26:36.023Z,5.20
2017-12-25T06:27:09.709Z,5.95
2017-12-25T06:27:43.359Z,5.70
2017-12-25T06:28:17.018Z,5.30
2017-12-25T06:28:50.683Z,4.95
2017-12-25T06:29:25.108Z,5.30
2017-12-25T06:29:58.760Z,5.25
2017-12-25T06:30:32.407Z,5.10
2017-12-25T06:31:06.061Z,4.87
2017-12-25T06:31:40.482Z,4.70
2017-12-25T06:32:14.404Z,4.50
2017-12-25T06:32:48.055Z,5.45
2017-12-25T06:33:22.150Z,5.18
2017-12-25T06:33:56.571Z,5.18
2017-12-25T06:34:30.223Z,4.40
2017-12-25T06:35:03.871Z,5.87
2017-12-25T06:35:37.534Z,5.45
2017-12-25T06:36:11.962Z,4.72
2017-12-25T06:36:45.613Z,4.70
2017-12-25T06:37:20.048Z,5.10
2017-12-25T06:37:53.710Z,4.90
2017-12-25T06:38:28.134Z,4.85
2017-12-25T06:39:02.547Z,5.50
2017-12-25T06:39:36.202Z,4.97
2017-12-25T06:40:11.369Z,4.90
2017-12-25T06:40:45.026Z,5.37
2017-12-25T06:41:19.446Z,4.80
2017-12-25T06:41:53.862Z,4.60
2017-12-25T06:42:27.542Z,4.80
2017-12-25T06:43:01.955Z,4.93
2017-12-25T06:43:36.571Z,4.78
2017-12-25T06:44:11.003Z,4.90
2017-12-25T06:44:44.662Z,4.65
2017-12-25T06:45:19.100Z,4.95
2017-12-25T06:45:52.755Z,4.65
2017-12-25T06:46:27.195Z,4.15
2017-12-25T06:47:00.842Z,4.22
2017-12-25T06:47:35.541Z,5.05
2017-12-25T06:48:09.185Z,4.10
2017-12-25T06:48:42.839Z,5.12
2017-12-25T06:49:17.254Z,4.53
2017-12-25T06:49:51.682Z,4.10
2017-12-25T06:50:25.335Z,4.65
2017-12-25T06:50:59.843Z,4.43
2017-12-25T06:51:34.262Z,4.22
2017-12-25T06:52:08.701Z,5.32
2017-12-25T06:52:42.652Z,4.40
2017-12-25T06:53:16.313Z,4.78
2017-12-25T06:53:49.970Z,4.95
2017-12-25T06:54:23.620Z,4.60
2017-12-25T06:54:58.038Z,3.95
2017-12-25T06:55:32.453Z,4.55
2017-12-25T06:56:06.866Z,4.50
2017-12-25T06:56:40.517Z,4.37
2017-12-25T06:57:14.180Z,4.00
2017-12-25T06:57:47.856Z,3.95
2017-12-25T06:58:21.496Z,4.70
2017-12-25T06:58:55.149Z,3.80
2017-12-25T06:59:28.810Z,4.22
2017-12-25T07:00:02.475Z,4.40
2017-12-25T07:00:36.896Z,3.75
2017-12-25T07:01:10.561Z,4.15
2017-12-25T07:01:44.211Z,3.83
2017-12-25T07:02:17.866Z,4.40
2017-12-25T07:02:51.544Z,3.80
2017-12-25T07:03:25.969Z,3.70
2017-12-25T07:03:59.643Z,4.22
2017-12-25T07:04:34.069Z,3.90
2017-12-25T07:05:07.730Z,3.65
2017-12-25T07:05:42.150Z,4.28
2017-12-25T07:06:16.580Z,3.60
2017-12-25T07:06:50.233Z,3.92
2017-12-25T07:07:24.647Z,4.03
2017-12-25T07:07:59.358Z,3.30
2017-12-25T07:08:33.774Z,4.22
2017-12-25T07:09:07.450Z,4.18
2017-12-25T07:09:41.917Z,4.57
2017-12-25T07:10:15.569Z,3.83
2017-12-25T07:10:49.234Z,4.20
2017-12-25T07:11:23.653Z,4.10
2017-12-25T07:11:57.313Z,3.85
2017-12-25T07:12:30.966Z,4.10
2017-12-25T07:13:04.650Z,3.67
2017-12-25T07:13:38.307Z,3.50
2017-12-25T07:14:12.734Z,3.60
2017-12-25T07:14:46.389Z,3.60
2017-12-25T07:15:20.803Z,4.10
2017-12-25T07:15:55.214Z,3.80
2017-12-25T07:16:29.625Z,3.50
2017-12-25T07:17:04.042Z,3.95
2017-12-25T07:17:37.711Z,3.40
2017-12-25T07:18:12.425Z,3.20
2017-12-25T07:18:46.853Z,3.67
2017-12-25T07:19:20.519Z,3.42
2017-12-25T07:19:54.954Z,3.17
2017-12-25T07:20:28.624Z,3.45
2017-12-25T07:21:03.056Z,3.60
2017-12-25T07:21:36.710Z,3.65
2017-12-25T07:22:11.143Z,3.80
2017-12-25T07:22:44.804Z,3.17
2017-12-25T07:23:19.257Z,4.00
2017-12-25T07:23:52.914Z,4.05
2017-12-25T07:24:27.341Z,4.15
2017-12-25T07:25:01.002Z,3.80
2017-12-25T07:25:35.422Z,3.47
2017-12-25T07:26:09.842Z,3.70
2017-12-25T07:26:43.504Z,3.37
2017-12-25T07:27:17.934Z,3.10
2017-12-25T07:27:51.585Z,3.10
2017-12-25T07:28:25.267Z,3.42
2017-12-25T07:28:58.919Z,3.00
2017-12-25T07:29:32.574Z,3.40
2017-12-25T07:30:06.670Z,3.20
2017-12-25T07:30:41.091Z,3.37
2017-12-25T07:31:14.746Z,3.00
2017-12-25T07:31:48.399Z,3.35
2017-12-25T07:32:22.063Z,3.75
2017-12-25T07:32:55.727Z,3.72
2017-12-25T07:33:29.397Z,3.33
2017-12-25T07:34:03.050Z,3.60
2017-12-25T07:34:36.726Z,3.30
2017-12-25T07:35:10.392Z,3.20
2017-12-25T07:35:44.800Z,3.50
2017-12-25T07:36:19.218Z,3.00
2017-12-25T07:36:53.633Z,3.30
2017-12-25T07:37:27.281Z,3.17
2017-12-25T07:38:00.940Z,3.10
2017-12-25T07:38:34.874Z,3.00
2017-12-25T07:39:08.534Z,3.30
2017-12-25T07:39:42.191Z,3.20
2017-12-25T07:40:15.855Z,3.25
2017-12-25T07:40:50.286Z,3.22
2017-12-25T07:41:23.938Z,2.97
2017-12-25T07:41:57.785Z,2.75
2017-12-25T07:42:31.438Z,3.45
2017-12-25T07:43:05.857Z,3.72
2017-12-25T07:43:39.787Z,3.30
2017-12-25T07:44:13.439Z,3.20
2017-12-25T07:44:47.101Z,3.10
2017-12-25T07:45:20.754Z,3.17
2017-12-25T07:45:54.411Z,3.35
2017-12-25T07:46:28.074Z,3.10
2017-12-25T07:47:02.518Z,3.30
2017-12-25T07:47:37.119Z,2.95
2017-12-25T07:48:10.777Z,2.78
2017-12-25T07:48:44.466Z,3.20
2017-12-25T07:49:18.123Z,3.12
2017-12-25T07:49:51.773Z,3.37
2017-12-25T07:50:25.435Z,3.08
2017-12-25T07:50:59.090Z,2.80
2017-12-25T07:51:32.758Z,3.10
2017-12-25T07:52:06.100Z,3.28
2017-12-25T07:52:40.530Z,3.35
2017-12-25T07:53:14.190Z,2.70
2017-12-25T07:53:47.867Z,3.42
2017-12-25T07:54:21.514Z,3.05
2017-12-25T07:54:55.162Z,3.22
2017-12-25T07:55:29.574Z,3.58
2017-12-25T07:56:04.003Z,2.40
2017-12-25T07:56:38.644Z,2.55
2017-12-25T07:57:12.316Z,3.05
2017-12-25T07:57:45.986Z,2.87
2017-12-25T07:58:19.657Z,3.17
2017-12-25T07:58:53.335Z,3.10
2017-12-25T07:59:27.006Z,3.20
2017-12-25T08:00:00.668Z,2.90
2017-12-25T08:00:34.328Z,3.80
2017-12-25T08:01:08.776Z,3.00
2017-12-25T08:01:42.465Z,3.15
2017-12-25T08:02:16.134Z,2.95
2017-12-25T08:02:49.790Z,3.25
2017-12-25T08:03:24.922Z,2.92
2017-12-25T08:03:59.508Z,3.15
2017-12-25T08:04:33.165Z,2.87
2017-12-25T08:05:06.827Z,2.47
2017-12-25T08:05:40.479Z,3.15
2017-12-25T08:06:14.137Z,2.70
2017-12-25T08:06:47.799Z,3.20
2017-12-25T08:07:21.461Z,2.92
2017-12-25T08:07:55.906Z,3.10
2017-12-25T08:08:29.573Z,3.20
2017-12-25T08:09:03.436Z,3.45
2017-12-25T08:09:37.095Z,3.15
2017-12-25T08:10:10.745Z,3.33
2017-12-25T08:10:45.186Z,3.17
2017-12-25T08:11:18.844Z,3.37
2017-12-25T08:11:53.266Z,3.10
2017-12-25T08:12:26.920Z,3.00
2017-12-25T08:13:00.600Z,3.30
2017-12-25T08:13:34.263Z,2.85
2017-12-25T08:14:08.152Z,2.50
2017-12-25T08:14:41.816Z,2.75
2017-12-25T08:15:15.497Z,2.72
2017-12-25T08:15:49.151Z,3.50
2017-12-25T08:16:22.807Z,2.90
2017-12-25T08:16:56.472Z,3.08
2017-12-25T08:17:30.131Z,3.17
2017-12-25T08:18:04.564Z,3.03
2017-12-25T08:18:38.227Z,3.20
2017-12-25T08:19:12.886Z,2.92
2017-12-25T08:19:46.561Z,2.90
2017-12-25T08:20:20.219Z,2.55
2017-12-25T08:20:53.879Z,3.30
2017-12-25T08:21:27.745Z,3.75
2017-12-25T08:22:01.416Z,3.00
2017-12-25T08:22:35.083Z,3.15
2017-12-25T08:23:09.736Z,3.22
2017-12-25T08:23:43.392Z,3.25
2017-12-25T08:24:17.835Z,3.15
2017-12-25T08:24:51.514Z,3.42
2017-12-25T08:25:25.179Z,3.08
2017-12-25T08:25:59.646Z,3.50
2017-12-25T08:26:33.452Z,2.67
2017-12-25T08:27:07.111Z,3.20
2017-12-25T08:27:40.775Z,2.95
2017-12-25T08:28:14.432Z,3.30
2017-12-25T08:28:48.124Z,3.20
2017-12-25T08:29:21.799Z,3.25
2017-12-25T08:29:55.449Z,3.37
2017-12-25T08:30:29.102Z,3.47
2017-12-25T08:31:03.528Z,3.40
2017-12-25T08:31:37.178Z,3.12
2017-12-25T08:32:10.832Z,2.95
2017-12-25T08:32:44.481Z,3.15
2017-12-25T08:33:18.890Z,3.33
2017-12-25T08:33:53.322Z,2.72
2017-12-25T08:34:26.998Z,3.10
2017-12-25T08:35:00.655Z,3.35
2017-12-25T08:35:34.303Z,3.40
2017-12-25T08:36:07.955Z,3.40
2017-12-25T08:36:42.372Z,3.05
2017-12-25T08:37:16.030Z,3.87
2017-12-25T08:37:50.453Z,3.90
2017-12-25T08:38:24.869Z,4.62
2017-12-25T08:38:58.540Z,3.42
2017-12-25T08:39:33.018Z,3.55
2017-12-25T08:40:06.677Z,3.50
2017-12-25T08:40:40.338Z,3.58
2017-12-25T08:41:14.769Z,4.00
2017-12-25T08:41:48.439Z,3.80
2017-12-25T08:42:22.882Z,4.00
2017-12-25T08:42:56.544Z,3.22
2017-12-25T08:43:30.216Z,3.60
2017-12-25T08:44:04.659Z,3.37
2017-12-25T08:44:38.349Z,3.60
2017-12-25T08:45:12.011Z,3.17
2017-12-25T08:45:46.446Z,3.40
2017-12-25T08:46:20.102Z,4.05
2017-12-25T08:46:54.524Z,3.65
2017-12-25T08:47:28.170Z,4.20
2017-12-25T08:48:01.819Z,4.55
2017-12-25T08:48:35.466Z,4.35
2017-12-25T08:49:09.891Z,3.95
2017-12-25T08:49:43.570Z,3.87
2017-12-25T08:50:18.004Z,3.70
2017-12-25T08:50:51.658Z,3.60
2017-12-25T08:51:25.318Z,3.65
2017-12-25T08:51:58.973Z,3.47
2017-12-25T08:52:32.626Z,3.40
2017-12-25T08:53:06.291Z,4.05